Chenoa, IL

12:14 AM CST on December 21, 2014 (GMT -0600)
H2G Chenoa, IL | Change Station
CLOSE
Current Station
Personal Weather Station
Location: Chenoa, IL
Elevation: 722 ft
Nearby Weather Stations

Elev 722 ft 40.75 °N, 88.76 °W | Updated 103 days ago

Cloudy
Cloudy
29 °F
Feels Like 24 °F
N
7
Wind Variable Wind from South
Gusts 8 mph

Today
High -- | Low -- °F
--% Chance of Precip.
Yesterday
High -- | Low -- °F
Precip. -- in
7:15 AM 4:30 PM
Waning Crescent, 1% visible
Pressure 30.25 in
Visibility 7.0 miles
Clouds Overcast 3400 ft
Windchill 24 °F
Dew Point 28 °F
Humidity 93%
Rainfall 0.00 in
Snow Depth Not available.
UV 0 out of 12
Pollen .10 out of 12
Air Quality Not available.
Flu Activity Not available.
METAR KPNT 210555Z AUTO 15007KT 7SM OVC034 01/M01 A3025 RMK AO2 T00061010 10007 20005 400121056

More Conditions Fewer Conditions

Pressure 30.25 in
Visibility 7.0 miles
Clouds Overcast 3400 ft
Windchill 24 °F
Dew Point 28 °F
Humidity 93%
Rainfall 0.00 in
Snow Depth Not available.
UV 0 out of 12
Pollen .10 out of 12
Air Quality Not available.
Flu Activity Not available.
METAR KPNT 210555Z AUTO 15007KT 7SM OVC034 01/M01 A3025 RMK AO2 T00061010 10007 20005 400121056

More Conditions Fewer Conditions

10-Day Weather Forecast

Almanac

Astronomy

Dec. 21, 2014 Rise Set
Actual Time
Civil Twilight
Nautical Twilight
Astronomical Twilight
Moon
Length of Visible Light
Length of Day
Tomorrow will be .
, % of the Moon is Illuminated

Today's Extremes

State Highs State Lows

Community

WunderPhotos

Upload Photos

1,779,360 photos uploaded!

WunderBlogs® & News

Nearby

Air Quality

  Air Quality AQ Index Pollutant
Not available.

Snow Depth

Station Depth Elevation

Earthquake Activity

City Distance Mag. Time & Date
Minimum magnitude displayed is 2.5.

Coastal Water Temperatures

Place Temperature

Nearby Weather Stations